createdAt,value
2022-10-11T00:00:15.814Z,8.76
2022-10-11T00:02:42.524Z,8.75
2022-10-11T00:05:09.904Z,8.76
2022-10-11T00:07:37.526Z,8.77
2022-10-11T00:10:08.014Z,8.77
2022-10-11T00:12:35.533Z,8.76
2022-10-11T00:15:02.249Z,8.76
2022-10-11T00:17:28.833Z,8.75
2022-10-11T00:19:55.955Z,8.73
2022-10-11T00:22:22.884Z,8.72
2022-10-11T00:24:49.541Z,8.73
2022-10-11T00:27:17.572Z,8.73
2022-10-11T00:29:44.418Z,8.74
2022-10-11T00:32:11.117Z,8.74
2022-10-11T00:34:38.158Z,8.73
2022-10-11T00:37:05.043Z,8.70
2022-10-11T00:39:31.703Z,8.64
2022-10-11T00:41:58.680Z,8.60
2022-10-11T00:44:29.125Z,8.58
2022-10-11T00:47:00.320Z,8.56
2022-10-11T00:49:34.179Z,8.53
2022-10-11T00:52:03.558Z,8.50
2022-10-11T00:54:34.208Z,8.46
2022-10-11T00:57:05.562Z,8.45
2022-10-11T00:59:37.773Z,8.45
2022-10-11T01:02:05.795Z,8.44
2022-10-11T01:04:32.957Z,8.42
2022-10-11T01:07:00.164Z,8.40
2022-10-11T01:09:27.026Z,8.38
2022-10-11T01:11:56.339Z,8.37
2022-10-11T01:14:54.039Z,8.38
2022-10-11T01:17:30.192Z,8.38
2022-10-11T01:20:26.274Z,8.36
2022-10-11T01:23:23.372Z,8.32
2022-10-11T01:26:10.011Z,8.25
2022-10-11T01:28:46.278Z,8.20
2022-10-11T01:31:21.873Z,8.15
2022-10-11T01:33:54.532Z,8.13
2022-10-11T01:36:27.950Z,8.10
2022-10-11T01:39:00.507Z,8.09
2022-10-11T01:41:31.342Z,8.06
2022-10-11T01:44:01.635Z,8.04
2022-10-11T01:46:30.830Z,8.04
2022-10-11T01:49:00.026Z,8.03
2022-10-11T01:51:30.201Z,8.02
2022-10-11T01:54:10.519Z,8.00
2022-10-11T01:57:00.929Z,7.96
2022-10-11T01:59:41.412Z,7.93
2022-10-11T02:02:27.035Z,7.91
2022-10-11T02:04:57.777Z,7.92
2022-10-11T02:07:31.451Z,7.93
2022-10-11T02:10:06.903Z,7.94
2022-10-11T02:12:37.932Z,7.97
2022-10-11T02:15:09.341Z,7.97
2022-10-11T02:17:43.521Z,7.97
2022-10-11T02:20:14.322Z,7.93
2022-10-11T02:22:45.075Z,7.88
2022-10-11T02:25:16.176Z,7.84
2022-10-11T02:27:47.782Z,7.82
2022-10-11T02:30:15.795Z,7.80
2022-10-11T02:32:46.677Z,7.78
2022-10-11T02:35:14.118Z,7.75
2022-10-11T02:37:43.452Z,7.76
2022-10-11T02:40:16.690Z,7.77
2022-10-11T02:42:48.239Z,7.73
2022-10-11T02:45:18.323Z,7.71
2022-10-11T02:47:47.717Z,7.69
2022-10-11T02:50:15.708Z,7.65
2022-10-11T02:52:42.540Z,7.64
2022-10-11T02:55:10.482Z,7.63
2022-10-11T02:57:37.072Z,7.62
2022-10-11T03:00:04.286Z,7.62
2022-10-11T03:02:30.913Z,7.63
2022-10-11T03:04:58.897Z,7.65
2022-10-11T03:07:25.566Z,7.64
2022-10-11T03:09:52.216Z,7.66
2022-10-11T03:12:18.893Z,7.65
2022-10-11T03:14:45.561Z,7.62
2022-10-11T03:17:34.996Z,7.61
2022-10-11T03:20:00.368Z,7.60
2022-10-11T03:22:26.947Z,7.57
2022-10-11T03:24:53.562Z,7.56
2022-10-11T03:27:20.276Z,7.55
2022-10-11T03:29:46.909Z,7.54
2022-10-11T03:32:13.533Z,7.50
2022-10-11T03:34:40.204Z,7.48
2022-10-11T03:37:08.166Z,7.48
2022-10-11T03:39:35.007Z,7.49
2022-10-11T03:42:01.567Z,7.51
2022-10-11T03:44:28.226Z,7.50
2022-10-11T03:46:55.339Z,7.49
2022-10-11T03:49:21.920Z,7.47
2022-10-11T03:51:48.576Z,7.47
2022-10-11T03:54:16.549Z,7.50
2022-10-11T03:56:43.176Z,7.51
2022-10-11T03:59:10.663Z,7.55
2022-10-11T04:01:38.500Z,7.57
2022-10-11T04:04:07.057Z,7.59
2022-10-11T04:06:33.736Z,7.60
2022-10-11T04:09:00.360Z,7.60
2022-10-11T04:11:28.542Z,7.61
2022-10-11T04:13:55.229Z,7.62
2022-10-11T04:16:21.980Z,7.63
2022-10-11T04:18:48.643Z,7.64
2022-10-11T04:21:15.322Z,7.65
2022-10-11T04:23:42.287Z,7.66
2022-10-11T04:26:09.229Z,7.66
2022-10-11T04:28:37.335Z,7.66
2022-10-11T04:31:05.499Z,7.66
2022-10-11T04:33:32.131Z,7.68
2022-10-11T04:35:58.826Z,7.73
2022-10-11T04:38:25.492Z,7.76
2022-10-11T04:40:52.141Z,7.78
2022-10-11T04:43:19.106Z,7.84
2022-10-11T04:45:47.091Z,7.87
2022-10-11T04:48:14.296Z,7.91
2022-10-11T04:50:40.918Z,7.94
2022-10-11T04:53:07.636Z,7.97
2022-10-11T04:55:34.301Z,7.99
2022-10-11T04:58:02.256Z,7.99
2022-10-11T05:00:29.053Z,8.00
2022-10-11T05:02:57.514Z,7.99
2022-10-11T05:05:24.233Z,8.00
2022-10-11T05:07:50.917Z,8.00
2022-10-11T05:10:17.702Z,8.00
2022-10-11T05:12:44.412Z,7.97
2022-10-11T05:15:11.108Z,7.97
2022-10-11T05:17:37.788Z,7.96
2022-10-11T05:20:07.093Z,7.95
2022-10-11T05:22:33.823Z,7.92
2022-10-11T05:25:00.387Z,7.90
2022-10-11T05:27:27.298Z,7.91
2022-10-11T05:29:53.897Z,7.91
2022-10-11T05:32:20.583Z,7.89
2022-10-11T05:34:47.275Z,7.89
2022-10-11T05:37:15.274Z,7.87
2022-10-11T05:39:41.858Z,7.84
2022-10-11T05:42:10.063Z,7.84
2022-10-11T05:44:36.771Z,7.83
2022-10-11T05:47:03.521Z,7.83
2022-10-11T05:49:30.378Z,7.83
2022-10-11T05:51:56.971Z,7.84
2022-10-11T05:54:25.327Z,7.82
2022-10-11T05:56:51.929Z,7.79
2022-10-11T05:59:18.500Z,7.76
2022-10-11T06:01:45.240Z,7.74
2022-10-11T06:04:11.884Z,7.68
2022-10-11T06:06:38.669Z,7.65
2022-10-11T06:09:05.316Z,7.64
2022-10-11T06:11:33.280Z,7.66
2022-10-11T06:14:00.077Z,7.64
2022-10-11T06:16:27.260Z,7.65
2022-10-11T06:18:54.869Z,7.63
2022-10-11T06:21:21.663Z,7.63
2022-10-11T06:23:49.586Z,7.63
2022-10-11T06:26:17.359Z,7.66
2022-10-11T06:28:46.196Z,7.66
2022-10-11T06:31:13.033Z,7.65
2022-10-11T06:33:39.809Z,7.66
2022-10-11T06:36:09.722Z,7.69
2022-10-11T06:38:39.831Z,7.70
2022-10-11T06:41:10.813Z,7.69
2022-10-11T06:43:37.535Z,7.69
2022-10-11T06:46:06.157Z,7.70
2022-10-11T06:48:32.927Z,7.71
2022-10-11T06:51:00.562Z,7.75
2022-10-11T06:53:28.215Z,7.78
2022-10-11T06:56:01.166Z,7.85
2022-10-11T06:58:28.448Z,7.93
2022-10-11T07:00:55.324Z,7.99
2022-10-11T07:03:23.377Z,8.07
2022-10-11T07:05:50.029Z,8.13
2022-10-11T07:08:16.623Z,8.20
2022-10-11T07:10:43.409Z,8.27
2022-10-11T07:13:13.532Z,8.35
2022-10-11T07:15:42.942Z,8.41
2022-10-11T07:18:09.504Z,8.47
2022-10-11T07:20:37.533Z,8.53
2022-10-11T07:23:04.571Z,8.59
2022-10-11T07:25:32.066Z,8.64
2022-10-11T07:27:58.673Z,8.70
2022-10-11T07:30:25.358Z,8.74
2022-10-11T07:32:51.941Z,8.80
2022-10-11T07:35:18.604Z,8.85
2022-10-11T07:37:46.526Z,8.90
2022-10-11T07:40:13.182Z,8.95
2022-10-11T07:42:39.968Z,8.98
2022-10-11T07:45:07.215Z,9.04
2022-10-11T07:47:33.779Z,9.08
2022-10-11T07:50:01.096Z,9.13
2022-10-11T07:52:27.754Z,9.16
2022-10-11T07:54:55.825Z,9.21
2022-10-11T07:57:22.548Z,9.25
2022-10-11T07:59:50.375Z,9.29
2022-10-11T08:02:18.063Z,9.32
2022-10-11T08:04:44.635Z,9.36
2022-10-11T08:07:11.320Z,9.40
2022-10-11T08:09:38.073Z,9.45
2022-10-11T08:12:06.375Z,9.49
2022-10-11T08:14:32.961Z,9.54
2022-10-11T08:16:59.868Z,9.58
2022-10-11T08:19:26.496Z,9.61
2022-10-11T08:21:53.100Z,9.65
2022-10-11T08:24:21.082Z,9.70
2022-10-11T08:26:48.129Z,9.72
2022-10-11T08:29:16.158Z,9.78
2022-10-11T08:31:44.520Z,9.82
2022-10-11T08:34:11.305Z,9.87
2022-10-11T08:36:38.371Z,9.92
2022-10-11T08:39:05.673Z,9.96
2022-10-11T08:41:40.980Z,10.00
2022-10-11T08:44:58.234Z,10.05
2022-10-11T08:47:27.305Z,10.09
2022-10-11T08:49:55.353Z,10.13
2022-10-11T08:52:25.176Z,10.18
2022-10-11T08:54:56.266Z,10.22
2022-10-11T08:57:26.011Z,10.26
2022-10-11T08:59:57.820Z,10.32
2022-10-11T09:03:06.482Z,10.38
2022-10-11T09:05:34.287Z,10.43
2022-10-11T09:08:07.971Z,10.49
2022-10-11T09:10:53.400Z,10.54
2022-10-11T09:13:41.627Z,10.60
2022-10-11T09:16:18.985Z,10.68
2022-10-11T09:19:09.167Z,10.75
2022-10-11T09:21:42.837Z,10.83
2022-10-11T09:24:24.825Z,10.89
2022-10-11T09:26:56.178Z,10.96
2022-10-11T09:29:45.432Z,11.06
2022-10-11T09:32:16.153Z,11.12
2022-10-11T09:34:43.405Z,11.18
2022-10-11T09:37:21.652Z,11.23
2022-10-11T09:39:56.653Z,11.30
2022-10-11T09:42:23.463Z,11.37
2022-10-11T09:44:51.555Z,11.44
2022-10-11T09:47:21.883Z,11.50
2022-10-11T09:49:52.891Z,11.57
2022-10-11T09:52:21.815Z,11.64
2022-10-11T09:54:51.056Z,11.69
2022-10-11T09:57:21.006Z,11.79
2022-10-11T10:00:00.511Z,11.85
2022-10-11T10:02:29.423Z,11.93
2022-10-11T10:05:03.493Z,11.99
2022-10-11T10:07:32.572Z,12.06
2022-10-11T10:09:59.631Z,12.11
2022-10-11T10:12:29.186Z,12.19
2022-10-11T10:15:03.456Z,12.25
2022-10-11T10:17:32.923Z,12.32
2022-10-11T10:20:00.626Z,12.39
2022-10-11T10:22:29.969Z,12.47
2022-10-11T10:24:58.704Z,12.53
2022-10-11T10:27:28.284Z,12.59
2022-10-11T10:30:15.990Z,12.64
2022-10-11T10:32:49.148Z,12.70
2022-10-11T10:35:27.467Z,12.77
2022-10-11T10:38:05.384Z,12.84
2022-10-11T10:40:39.162Z,12.90
2022-10-11T10:43:06.072Z,12.95
2022-10-11T10:45:43.183Z,13.02
2022-10-11T10:48:22.481Z,13.09
2022-10-11T10:50:54.611Z,13.16
2022-10-11T10:53:27.852Z,13.24
2022-10-11T10:56:05.172Z,13.30
2022-10-11T10:58:47.603Z,13.37
2022-10-11T11:01:19.262Z,13.44
2022-10-11T11:03:55.799Z,13.52
2022-10-11T11:06:35.622Z,13.60
2022-10-11T11:09:17.767Z,13.66
2022-10-11T11:11:56.827Z,13.74
2022-10-11T11:14:33.703Z,13.83
2022-10-11T11:17:11.249Z,13.89
2022-10-11T11:19:53.791Z,13.94
2022-10-11T11:22:34.480Z,14.00
2022-10-11T11:25:14.720Z,14.06
2022-10-11T11:27:55.657Z,14.13
2022-10-11T11:30:25.514Z,14.21
2022-10-11T11:33:04.003Z,14.26
2022-10-11T11:35:38.409Z,14.34
2022-10-11T11:38:18.892Z,14.39
2022-10-11T11:40:51.972Z,14.45
2022-10-11T11:43:25.206Z,14.50
2022-10-11T11:45:55.396Z,14.58
2022-10-11T11:48:24.823Z,14.64
2022-10-11T11:51:00.398Z,14.70
2022-10-11T11:53:44.568Z,14.77
2022-10-11T11:56:23.004Z,14.81
2022-10-11T11:59:03.076Z,14.85
2022-10-11T12:01:37.568Z,14.88
2022-10-11T12:04:09.388Z,14.92
2022-10-11T12:06:47.883Z,14.95
2022-10-11T12:09:23.106Z,15.00
2022-10-11T12:11:55.722Z,15.04
2022-10-11T12:14:35.123Z,15.09
2022-10-11T12:17:20.002Z,15.14
2022-10-11T12:20:14.689Z,15.20
2022-10-11T12:22:54.214Z,15.25
2022-10-11T12:25:40.754Z,15.31
2022-10-11T12:28:48.786Z,15.36
2022-10-11T12:31:23.511Z,15.42
2022-10-11T12:33:54.215Z,15.47
2022-10-11T12:36:39.822Z,15.54
2022-10-11T12:39:49.405Z,15.60
2022-10-11T12:42:32.934Z,15.66
2022-10-11T12:45:29.406Z,15.72
2022-10-11T12:48:07.604Z,15.76
2022-10-11T12:50:48.616Z,15.83
2022-10-11T12:53:30.368Z,15.89
2022-10-11T12:56:01.161Z,15.97
2022-10-11T12:58:34.031Z,16.04
2022-10-11T13:01:23.255Z,16.12
2022-10-11T13:03:58.210Z,16.18
2022-10-11T13:06:28.700Z,16.24
2022-10-11T13:09:00.623Z,16.29
2022-10-11T13:11:32.622Z,16.33
2022-10-11T13:14:07.867Z,16.37
2022-10-11T13:16:48.410Z,16.34
2022-10-11T13:19:15.449Z,16.32
2022-10-11T13:21:42.248Z,16.33
2022-10-11T13:24:12.946Z,16.36
2022-10-11T13:26:40.788Z,16.36
2022-10-11T13:29:16.761Z,16.38
2022-10-11T13:31:47.491Z,16.39
2022-10-11T13:34:16.739Z,16.41
2022-10-11T13:36:47.837Z,16.41
2022-10-11T13:39:30.983Z,16.41
2022-10-11T13:41:59.656Z,16.41
2022-10-11T13:44:28.189Z,16.35
2022-10-11T13:46:55.855Z,16.32
2022-10-11T13:49:28.252Z,16.28
2022-10-11T13:51:59.529Z,16.25
2022-10-11T13:54:48.834Z,16.24
2022-10-11T13:57:15.441Z,16.18
2022-10-11T13:59:44.364Z,16.12
2022-10-11T14:02:20.089Z,16.13
2022-10-11T14:04:48.814Z,16.11
2022-10-11T14:07:22.128Z,16.04
2022-10-11T14:09:48.944Z,16.01
2022-10-11T14:12:32.281Z,16.00
2022-10-11T14:15:01.486Z,15.98
2022-10-11T14:17:42.455Z,15.98
2022-10-11T14:20:16.726Z,15.96
2022-10-11T14:22:43.703Z,15.97
2022-10-11T14:25:12.994Z,15.96
2022-10-11T14:27:39.826Z,15.98
2022-10-11T14:30:31.206Z,16.00
2022-10-11T14:33:00.946Z,16.00
2022-10-11T14:35:32.347Z,16.01
2022-10-11T14:37:59.482Z,16.04
2022-10-11T14:40:30.414Z,16.04
2022-10-11T14:42:57.395Z,16.05
2022-10-11T14:45:25.722Z,16.05
2022-10-11T14:47:55.496Z,16.04
2022-10-11T14:50:31.605Z,16.05
2022-10-11T14:52:58.695Z,16.04
2022-10-11T14:55:25.475Z,16.04
2022-10-11T14:57:52.475Z,16.06
2022-10-11T15:00:22.370Z,16.05
2022-10-11T15:02:50.882Z,16.04
2022-10-11T15:05:18.193Z,16.04
2022-10-11T15:07:45.142Z,16.04
2022-10-11T15:10:19.899Z,16.06
2022-10-11T15:12:48.122Z,16.05
2022-10-11T15:15:20.580Z,16.06
2022-10-11T15:17:49.053Z,16.06
2022-10-11T15:20:23.030Z,16.08
2022-10-11T15:22:49.778Z,16.08
2022-10-11T15:25:17.918Z,16.09
2022-10-11T15:27:45.127Z,16.11
2022-10-11T15:30:19.800Z,16.11
2022-10-11T15:32:47.164Z,16.08
2022-10-11T15:35:14.719Z,16.07
2022-10-11T15:37:43.064Z,16.06
2022-10-11T15:40:16.501Z,16.06
2022-10-11T15:42:43.487Z,16.04
2022-10-11T15:45:10.788Z,16.01
2022-10-11T15:47:37.469Z,15.98
2022-10-11T15:50:05.129Z,15.93
2022-10-11T15:52:31.849Z,15.91
2022-10-11T15:54:59.861Z,15.87
2022-10-11T15:57:26.630Z,15.84
2022-10-11T15:59:53.179Z,15.80
2022-10-11T16:02:19.793Z,15.77
2022-10-11T16:04:46.381Z,15.73
2022-10-11T16:07:13.136Z,15.69
2022-10-11T16:09:39.791Z,15.64
2022-10-11T16:12:08.517Z,15.59
2022-10-11T16:14:35.078Z,15.53
2022-10-11T16:17:04.058Z,15.47
2022-10-11T16:19:30.727Z,15.42
2022-10-11T16:21:57.362Z,15.37
2022-10-11T16:24:24.033Z,15.35
2022-10-11T16:26:51.254Z,15.27
2022-10-11T16:29:19.183Z,15.19
2022-10-11T16:31:45.814Z,15.12
2022-10-11T16:34:12.389Z,15.09
2022-10-11T16:36:42.846Z,15.02
2022-10-11T16:39:13.246Z,14.98
2022-10-11T16:41:41.211Z,14.94
2022-10-11T16:44:11.240Z,14.87
2022-10-11T16:46:39.395Z,14.82
2022-10-11T16:49:07.410Z,14.76
2022-10-11T16:51:34.043Z,14.72
2022-10-11T16:54:01.147Z,14.66
2022-10-11T16:56:28.363Z,14.60
2022-10-11T16:58:55.492Z,14.54
2022-10-11T17:01:22.424Z,14.49
2022-10-11T17:03:53.410Z,14.44
2022-10-11T17:06:20.280Z,14.39
2022-10-11T17:08:47.076Z,14.34
2022-10-11T17:11:13.930Z,14.30
2022-10-11T17:13:40.733Z,14.21
2022-10-11T17:16:08.372Z,14.14
2022-10-11T17:18:35.676Z,14.07
2022-10-11T17:21:06.039Z,14.01
2022-10-11T17:23:33.770Z,13.95
2022-10-11T17:26:05.220Z,13.87
2022-10-11T17:28:35.457Z,13.81
2022-10-11T17:31:04.798Z,13.77
2022-10-11T17:33:31.820Z,13.70
2022-10-11T17:36:00.523Z,13.63
2022-10-11T17:38:29.078Z,13.56
2022-10-11T17:40:59.538Z,13.49
2022-10-11T17:43:26.199Z,13.43
2022-10-11T17:45:55.016Z,13.38
2022-10-11T17:48:21.638Z,13.30
2022-10-11T17:50:50.668Z,13.25
2022-10-11T17:53:18.083Z,13.20
2022-10-11T17:55:46.264Z,13.14
2022-10-11T17:58:12.977Z,13.07
2022-10-11T18:00:40.009Z,13.00
2022-10-11T18:03:06.918Z,12.94
2022-10-11T18:05:33.571Z,12.91
2022-10-11T18:08:00.140Z,12.86
2022-10-11T18:10:28.387Z,12.82
2022-10-11T18:12:56.360Z,12.76
2022-10-11T18:15:22.943Z,12.70
2022-10-11T18:17:49.757Z,12.65
2022-10-11T18:20:16.541Z,12.60
2022-10-11T18:22:43.503Z,12.56
2022-10-11T18:25:11.341Z,12.52
2022-10-11T18:27:38.293Z,12.51
2022-10-11T18:30:09.642Z,12.50
2022-10-11T18:32:36.479Z,12.45
2022-10-11T18:35:03.209Z,12.40
2022-10-11T18:37:29.974Z,12.38
2022-10-11T18:39:56.647Z,12.33
2022-10-11T18:42:23.297Z,12.28
2022-10-11T18:44:49.963Z,12.21
2022-10-11T18:47:18.338Z,12.15
2022-10-11T18:49:45.107Z,12.10
2022-10-11T18:52:15.343Z,12.05
2022-10-11T18:54:41.963Z,12.00
2022-10-11T18:57:08.591Z,11.94
2022-10-11T18:59:35.377Z,11.92
2022-10-11T19:02:04.066Z,11.88
2022-10-11T19:04:34.265Z,11.86
2022-10-11T19:07:00.944Z,11.83
2022-10-11T19:09:28.794Z,11.81
2022-10-11T19:11:57.429Z,11.76
2022-10-11T19:14:26.500Z,11.73
2022-10-11T19:16:53.313Z,11.70
2022-10-11T19:19:21.537Z,11.66
2022-10-11T19:21:49.910Z,11.64
2022-10-11T19:24:17.929Z,11.61
2022-10-11T19:26:44.819Z,11.57
2022-10-11T19:29:14.797Z,11.53
2022-10-11T19:31:42.860Z,11.50
2022-10-11T19:34:10.282Z,11.47
2022-10-11T19:36:37.974Z,11.43
2022-10-11T19:39:06.292Z,11.37
2022-10-11T19:41:33.454Z,11.34
2022-10-11T19:44:01.139Z,11.32
2022-10-11T19:49:17.729Z,11.26
2022-10-11T19:51:44.743Z,11.23
2022-10-11T19:54:14.427Z,11.17
2022-10-11T19:56:41.418Z,11.11
2022-10-11T19:59:08.273Z,11.08
2022-10-11T20:01:36.807Z,11.05
2022-10-11T20:04:06.175Z,11.01
2022-10-11T20:06:38.364Z,10.98
2022-10-11T20:09:27.853Z,10.95
2022-10-11T20:11:53.720Z,10.91
2022-10-11T20:14:20.826Z,10.87
2022-10-11T20:16:49.674Z,10.85
2022-10-11T20:19:16.262Z,10.79
2022-10-11T20:21:42.879Z,10.77
2022-10-11T20:24:09.787Z,10.74
2022-10-11T20:26:36.486Z,10.71
2022-10-11T20:29:04.563Z,10.68
2022-10-11T20:31:34.550Z,10.66
2022-10-11T20:34:04.093Z,10.63
2022-10-11T20:36:32.675Z,10.60
2022-10-11T20:39:00.061Z,10.58
2022-10-11T20:41:28.578Z,10.56
2022-10-11T20:43:57.043Z,10.54
2022-10-11T20:46:27.885Z,10.52
2022-10-11T20:49:01.185Z,10.50
2022-10-11T20:51:29.268Z,10.47
2022-10-11T20:53:56.528Z,10.43
2022-10-11T20:56:23.677Z,10.37
2022-10-11T20:58:52.088Z,10.35
2022-10-11T21:01:20.544Z,10.33
2022-10-11T21:03:48.715Z,10.32
2022-10-11T21:06:15.526Z,10.29
2022-10-11T21:08:42.432Z,10.27
2022-10-11T21:11:09.915Z,10.26
2022-10-11T21:13:36.709Z,10.24
2022-10-11T21:16:04.471Z,10.23
2022-10-11T21:18:35.531Z,10.20
2022-10-11T21:21:08.537Z,10.17
2022-10-11T21:23:44.685Z,10.13
2022-10-11T21:26:16.976Z,10.12
2022-10-11T21:28:45.334Z,10.08
2022-10-11T21:31:13.699Z,10.06
2022-10-11T21:33:41.916Z,10.04
2022-10-11T21:36:12.980Z,10.02
2022-10-11T21:38:42.050Z,10.01
2022-10-11T21:41:12.426Z,9.98
2022-10-11T21:43:39.218Z,9.95
2022-10-11T21:46:10.463Z,9.93
2022-10-11T21:48:37.046Z,9.89
2022-10-11T21:51:04.346Z,9.88
2022-10-11T21:53:32.806Z,9.85
2022-10-11T21:56:01.551Z,9.84
2022-10-11T21:58:28.571Z,9.82
2022-10-11T22:00:55.186Z,9.81
2022-10-11T22:03:21.956Z,9.80
2022-10-11T22:05:48.617Z,9.74
2022-10-11T22:08:15.841Z,9.71
2022-10-11T22:10:45.095Z,9.69
2022-10-11T22:13:11.983Z,9.67
2022-10-11T22:15:39.637Z,9.65
2022-10-11T22:18:06.871Z,9.63
2022-10-11T22:20:33.928Z,9.63
2022-10-11T22:23:02.155Z,9.61
2022-10-11T22:25:28.835Z,9.57
2022-10-11T22:27:56.879Z,9.55
2022-10-11T22:30:23.465Z,9.54
2022-10-11T22:32:50.937Z,9.53
2022-10-11T22:35:17.514Z,9.50
2022-10-11T22:37:44.147Z,9.50
2022-10-11T22:40:11.166Z,9.45
2022-10-11T22:42:37.771Z,9.41
2022-10-11T22:45:06.829Z,9.40
2022-10-11T22:47:33.642Z,9.36
2022-10-11T22:50:00.653Z,9.34
2022-10-11T22:52:27.311Z,9.33
2022-10-11T22:54:53.929Z,9.28
2022-10-11T22:57:20.599Z,9.25
2022-10-11T22:59:47.167Z,9.24
2022-10-11T23:02:15.159Z,9.22
2022-10-11T23:04:41.727Z,9.21
2022-10-11T23:07:08.333Z,9.21
2022-10-11T23:09:34.912Z,9.22
2022-10-11T23:12:01.690Z,9.20
2022-10-11T23:14:28.371Z,9.17
2022-10-11T23:16:54.968Z,9.16
2022-10-11T23:19:25.498Z,9.15
2022-10-11T23:21:52.249Z,9.11
2022-10-11T23:24:18.823Z,9.10
2022-10-11T23:26:45.833Z,9.09
2022-10-11T23:29:12.795Z,9.06
2022-10-11T23:31:39.500Z,9.06
2022-10-11T23:34:06.904Z,9.04
2022-10-11T23:36:35.085Z,9.02
2022-10-11T23:39:01.707Z,9.03
2022-10-11T23:41:29.463Z,9.02
2022-10-11T23:43:57.423Z,9.01
2022-10-11T23:46:24.623Z,8.98
2022-10-11T23:48:51.320Z,8.96
2022-10-11T23:51:17.950Z,8.95
2022-10-11T23:53:45.927Z,8.94
2022-10-11T23:56:12.682Z,8.92
2022-10-11T23:58:39.770Z,8.92
